Weather at Frankfurt am Main Airport

Public forecast

Using degrees Celsius for public forecast. Weather courtesy of forecast.io.

Current aviation weather report (METAR) for Frankfurt am Main Airport

Retrieved 2021/07/29 05:20 UTC (34 minutes ago):

EDDF 290520Z VRB02KT 9999 FEW024 15/13 Q1013 NOSIG

Aviation forecast (TAF) for Frankfurt am Main Airport

Retrieved 2021-07-29 00:27 UTC (5 hours ago):

TAF TAF EDDF 282300Z 2900/3006 19005KT CAVOK BECMG 2905/2907 22010KT TEMPO 2909/2917 24015G25KT BECMG 2918/2921 22005KT BECMG 2921/2924 VRB03KT